Time;durP1;ratioP1;P1;durP2;ratioP2;P2;SDS_P1;SDS_P2;PMS_P1;PMS_P2;Temp;Humidity;BMP_temperature;BMP_pressure;BME280_temperature;BME280_humidity;BME280_pressure;Samples;Min_cycle;Max_cycle;Signal;HPM_P1;HPM_P2
2021/12/10 00:00:45;;;;;;;56.40;31.08;;;5.40;99.90;;;;;;5147160;27;20499;-66
2021/12/10 00:03:15;;;;;;;60.20;32.17;;;5.50;99.90;;;;;;5121291;28;20481;-66
2021/12/10 00:05:52;;;;;;;52.50;31.42;;;5.50;99.90;;;;;;5125877;27;20043;-66
2021/12/10 00:08:19;;;;;;;52.55;30.33;;;5.50;99.90;;;;;;5153809;27;20039;-66
2021/12/10 00:10:47;;;;;;;46.95;29.80;;;5.50;99.90;;;;;;5121712;27;20532;-66
2021/12/10 00:13:14;;;;;;;45.10;27.60;;;5.50;99.90;;;;;;5143730;27;20050;-66
2021/12/10 00:15:40;;;;;;;52.25;29.27;;;5.50;99.90;;;;;;5139592;27;20043;-67
2021/12/10 00:18:08;;;;;;;54.13;28.60;;;5.50;99.90;;;;;;5114263;27;20468;-66
2021/12/10 00:20:36;;;;;;;58.72;30.13;;;5.50;99.90;;;;;;5137984;27;20050;-65
2021/12/10 00:23:12;;;;;;;65.20;29.73;;;5.50;99.90;;;;;;5153521;27;20070;-66
2021/12/10 00:25:47;;;;;;;55.35;28.85;;;5.60;99.90;;;;;;5124815;27;20048;-65
2021/12/10 00:28:25;;;;;;;50.45;26.63;;;5.60;99.90;;;;;;5153130;27;20065;-65
2021/12/10 00:31:32;;;;;;;49.13;27.02;;;5.60;99.90;;;;;;5134094;27;20047;-65
2021/12/10 00:34:11;;;;;;;59.78;30.25;;;5.60;99.90;;;;;;5132087;27;20051;-65
2021/12/10 00:36:39;;;;;;;48.22;27.67;;;5.50;99.90;;;;;;5133072;27;20444;-65
2021/12/10 00:39:07;;;;;;;47.92;26.38;;;5.50;99.90;;;;;;5127032;27;20419;-65
2021/12/10 00:41:34;;;;;;;44.65;23.80;;;5.50;99.90;;;;;;5134583;27;20046;-65
2021/12/10 00:43:59;;;;;;;52.30;24.80;;;5.60;99.90;;;;;;5120669;27;20482;-66
2021/12/10 00:46:25;;;;;;;41.72;25.83;;;5.60;99.90;;;;;;5135598;27;20050;-65
2021/12/10 00:48:51;;;;;;;54.08;26.23;;;5.60;99.90;;;;;;5134742;27;20103;-65
2021/12/10 00:51:17;;;;;;;42.17;25.20;;;5.60;99.90;;;;;;5132711;27;20051;-65
2021/12/10 00:53:43;;;;;;;47.83;24.65;;;5.60;99.90;;;;;;5141335;27;20043;-65
2021/12/10 00:56:09;;;;;;;45.72;24.17;;;5.60;99.90;;;;;;5133406;27;20050;-65
2021/12/10 00:58:36;;;;;;;41.33;22.00;;;5.60;99.90;;;;;;5114686;27;20054;-65
2021/12/10 01:01:09;;;;;;;44.95;23.80;;;5.60;99.90;;;;;;5132942;27;20485;-65
2021/12/10 01:03:39;;;;;;;46.90;24.67;;;5.60;99.90;;;;;;5132189;27;20045;-65
2021/12/10 01:06:08;;;;;;;43.10;23.98;;;5.60;99.90;;;;;;5131046;27;20047;-65
2021/12/10 01:08:37;;;;;;;38.90;21.98;;;5.60;99.90;;;;;;5131671;27;20138;-65
2021/12/10 01:11:16;;;;;;;38.45;22.13;;;5.60;99.90;;;;;;5130158;27;20134;-65
2021/12/10 01:13:45;;;;;;;42.85;21.88;;;5.60;99.90;;;;;;5132911;27;20407;-65
2021/12/10 01:23:47;;;;;;;32.90;22.10;;;5.60;99.90;;;;;;5138797;27;20079;-65
2021/12/10 01:25:04;;;;;;;39.80;21.63;;;5.60;99.90;;;;;;5112416;27;20058;-66
2021/12/10 01:27:34;;;;;;;37.83;20.77;;;5.60;99.90;;;;;;5105277;27;20062;-65
2021/12/10 01:30:01;;;;;;;32.38;19.35;;;5.60;99.90;;;;;;5133442;27;20043;-65
2021/12/10 01:32:31;;;;;;;36.40;20.38;;;5.60;99.90;;;;;;5123999;27;20059;-65
2021/12/10 01:34:57;;;;;;;35.40;18.85;;;5.60;99.90;;;;;;5140417;27;20482;-66
2021/12/10 01:37:24;;;;;;;35.03;19.85;;;5.60;99.90;;;;;;5129304;27;20089;-65
2021/12/10 01:39:52;;;;;;;36.13;21.92;;;5.60;99.90;;;;;;5144054;27;20039;-65
2021/12/10 01:42:33;;;;;;;43.13;22.83;;;5.60;99.90;;;;;;5131582;27;20050;-65
2021/12/10 01:45:01;;;;;;;35.65;21.35;;;5.60;99.90;;;;;;5148167;27;20141;-66
2021/12/10 01:47:32;;;;;;;39.80;21.80;;;5.50;99.90;;;;;;5112596;27;20112;-65
2021/12/10 01:49:58;;;;;;;44.92;23.20;;;5.60;99.90;;;;;;5131336;27;20050;-65
2021/12/10 01:52:25;;;;;;;38.00;23.33;;;5.60;99.90;;;;;;5137259;27;20047;-65
2021/12/10 01:54:54;;;;;;;37.35;21.77;;;5.60;99.90;;;;;;5133106;27;20050;-65
2021/12/10 01:57:22;;;;;;;43.78;23.05;;;5.60;99.90;;;;;;5130469;27;20061;-65
2021/12/10 01:59:49;;;;;;;36.67;21.65;;;5.50;99.90;;;;;;5144868;27;20047;-66
2021/12/10 02:02:19;;;;;;;40.53;22.88;;;5.60;99.90;;;;;;5140200;27;20043;-65
2021/12/10 02:04:47;;;;;;;41.53;21.90;;;5.60;99.90;;;;;;5140930;27;20057;-65
2021/12/10 02:07:16;;;;;;;37.72;20.42;;;5.60;99.90;;;;;;5127661;27;20485;-65
2021/12/10 02:09:42;;;;;;;44.42;22.35;;;5.60;99.90;;;;;;5147935;27;20563;-64
2021/12/10 02:12:08;;;;;;;40.95;22.15;;;5.60;99.90;;;;;;5151313;27;20081;-65
2021/12/10 02:14:34;;;;;;;32.20;19.38;;;5.60;99.90;;;;;;5151230;27;20130;-65
2021/12/10 02:17:00;;;;;;;31.27;18.63;;;5.60;99.90;;;;;;5110827;27;20193;-65
2021/12/10 02:19:28;;;;;;;36.72;19.60;;;5.60;99.90;;;;;;5149267;27;20049;-65
2021/12/10 02:21:55;;;;;;;26.63;17.35;;;5.60;99.90;;;;;;5150647;27;20062;-65
2021/12/10 02:24:21;;;;;;;38.03;19.63;;;5.60;99.90;;;;;;5145401;27;20114;-65
2021/12/10 02:26:54;;;;;;;24.85;17.98;;;5.60;99.90;;;;;;5129702;27;20135;-65
2021/12/10 02:29:24;;;;;;;31.33;16.55;;;5.60;99.90;;;;;;5129603;27;20134;-65
2021/12/10 02:31:51;;;;;;;30.83;16.85;;;5.60;99.90;;;;;;5123551;27;20054;-65
2021/12/10 02:34:16;;;;;;;26.42;15.52;;;5.60;99.90;;;;;;5108227;28;20052;-65
2021/12/10 02:36:42;;;;;;;34.08;17.00;;;5.60;99.90;;;;;;5103448;27;20043;-65
2021/12/10 02:39:11;;;;;;;22.80;15.40;;;5.60;99.90;;;;;;5123699;27;20484;-65
2021/12/10 02:41:37;;;;;;;25.58;14.57;;;5.60;99.90;;;;;;5105139;27;20043;-65
2021/12/10 02:44:04;;;;;;;28.25;12.95;;;5.60;99.90;;;;;;5130015;27;20035;-65
2021/12/10 02:46:30;;;;;;;27.75;15.63;;;5.70;99.90;;;;;;5129910;27;20054;-65
2021/12/10 02:48:56;;;;;;;30.98;15.23;;;5.60;99.90;;;;;;5123517;27;20035;-65
2021/12/10 02:51:23;;;;;;;31.88;16.23;;;5.60;99.90;;;;;;5130024;27;20508;-65
2021/12/10 02:53:49;;;;;;;25.25;12.60;;;5.60;99.90;;;;;;5124934;27;20040;-65
2021/12/10 02:56:19;;;;;;;38.15;15.18;;;5.60;99.90;;;;;;5113216;27;20047;-65
2021/12/10 02:58:47;;;;;;;20.15;12.80;;;5.50;99.90;;;;;;5127575;27;20042;-65
2021/12/10 03:01:23;;;;;;;25.63;13.70;;;5.50;99.90;;;;;;5136283;27;20035;-65
2021/12/10 03:03:49;;;;;;;27.67;12.02;;;5.50;99.90;;;;;;5110100;28;20054;-65
2021/12/10 03:06:17;;;;;;;33.40;14.07;;;5.50;99.90;;;;;;5130306;27;20478;-65
2021/12/10 03:08:45;;;;;;;22.30;13.00;;;5.50;99.90;;;;;;5130398;28;20051;-65
2021/12/10 03:11:14;;;;;;;28.10;11.93;;;5.50;99.90;;;;;;5110800;28;20047;-65
2021/12/10 03:13:41;;;;;;;22.77;11.43;;;5.50;99.90;;;;;;5126623;27;20065;-65
2021/12/10 03:16:07;;;;;;;20.85;11.52;;;5.50;99.90;;;;;;5148888;27;20062;-65
2021/12/10 03:18:34;;;;;;;22.15;11.73;;;5.50;99.90;;;;;;5137829;27;20107;-65
2021/12/10 03:21:01;;;;;;;23.67;12.60;;;5.50;99.90;;;;;;5111251;28;20047;-65
2021/12/10 03:23:27;;;;;;;23.60;11.43;;;5.40;99.90;;;;;;5147824;27;20425;-65
2021/12/10 03:25:52;;;;;;;22.02;11.70;;;5.50;99.90;;;;;;5143381;27;20031;-65
2021/12/10 03:28:18;;;;;;;21.58;11.23;;;5.50;99.90;;;;;;5134998;27;20788;-65
2021/12/10 03:30:49;;;;;;;28.52;13.40;;;5.50;99.90;;;;;;5113849;27;20047;-66
2021/12/10 03:33:14;;;;;;;21.95;12.05;;;5.50;99.90;;;;;;5128679;27;20043;-65
2021/12/10 03:35:44;;;;;;;25.60;12.10;;;5.40;99.90;;;;;;5127061;27;20051;-65
2021/12/10 03:38:13;;;;;;;22.33;12.55;;;5.40;99.90;;;;;;5143964;27;20038;-65
2021/12/10 03:40:39;;;;;;;31.02;12.95;;;5.40;99.90;;;;;;5140395;27;20035;-66
2021/12/10 03:43:06;;;;;;;24.08;11.80;;;5.40;99.90;;;;;;5133646;27;20058;-65
2021/12/10 03:45:36;;;;;;;20.27;11.40;;;5.30;99.90;;;;;;5109038;27;20069;-65
2021/12/10 03:48:10;;;;;;;20.83;12.38;;;5.30;99.90;;;;;;5149688;27;20592;-65
2021/12/10 03:50:38;;;;;;;25.02;12.57;;;5.30;99.90;;;;;;5113402;28;20053;-65
2021/12/10 03:53:04;;;;;;;23.70;13.18;;;5.30;99.90;;;;;;5112352;28;20040;-65
2021/12/10 03:55:30;;;;;;;23.15;12.32;;;5.20;99.90;;;;;;5132965;27;20042;-65
2021/12/10 03:57:57;;;;;;;21.65;12.15;;;5.20;99.90;;;;;;5127975;27;20115;-65
2021/12/10 04:00:27;;;;;;;21.33;12.95;;;5.20;99.90;;;;;;5136017;27;20082;-65
2021/12/10 04:02:53;;;;;;;30.10;14.25;;;5.20;99.90;;;;;;5147977;27;20606;-65
2021/12/10 04:05:19;;;;;;;23.98;13.57;;;5.10;99.90;;;;;;5134543;27;20046;-65
2021/12/10 04:07:45;;;;;;;23.83;12.88;;;5.10;99.90;;;;;;5135665;27;20035;-65
2021/12/10 04:10:16;;;;;;;29.08;13.63;;;5.10;99.90;;;;;;5145239;27;20104;-65
2021/12/10 04:12:42;;;;;;;26.13;13.73;;;5.00;99.90;;;;;;5134355;27;20798;-65
2021/12/10 04:15:09;;;;;;;27.60;13.52;;;5.00;99.90;;;;;;5153653;27;20073;-65
2021/12/10 04:17:37;;;;;;;23.73;11.80;;;5.00;99.90;;;;;;5148410;27;20044;-65
2021/12/10 04:20:04;;;;;;;27.60;14.77;;;5.00;99.90;;;;;;5138938;27;20129;-65
2021/12/10 04:22:32;;;;;;;24.15;12.82;;;5.00;99.90;;;;;;5153984;27;20046;-65
2021/12/10 04:25:01;;;;;;;23.45;13.82;;;5.00;99.90;;;;;;5133199;27;20126;-65
2021/12/10 04:27:27;;;;;;;30.00;12.90;;;4.90;99.90;;;;;;5124965;27;20493;-65
2021/12/10 04:29:56;;;;;;;22.15;12.57;;;4.90;99.90;;;;;;5143657;27;20050;-65
2021/12/10 04:32:24;;;;;;;24.33;12.25;;;4.80;99.90;;;;;;5131127;27;20039;-65
2021/12/10 04:34:50;;;;;;;21.42;12.05;;;4.80;99.90;;;;;;5131196;27;20444;-65
2021/12/10 04:37:16;;;;;;;26.08;12.68;;;4.70;99.90;;;;;;5136654;27;20031;-65
2021/12/10 04:39:46;;;;;;;23.48;11.93;;;4.70;99.90;;;;;;5132680;27;20062;-65
2021/12/10 04:42:21;;;;;;;28.40;13.98;;;4.70;99.90;;;;;;5131697;27;20066;-65
2021/12/10 04:44:51;;;;;;;22.83;12.88;;;4.60;99.90;;;;;;5148579;27;20450;-65
2021/12/10 04:47:16;;;;;;;22.02;12.77;;;4.60;99.90;;;;;;5140573;27;20048;-65
2021/12/10 04:49:42;;;;;;;23.17;12.77;;;4.50;99.90;;;;;;5098438;28;20043;-65
2021/12/10 04:52:08;;;;;;;20.15;12.23;;;4.50;99.90;;;;;;5093216;28;20071;-65
2021/12/10 04:54:34;;;;;;;22.35;12.63;;;4.50;99.90;;;;;;5110778;28;20096;-65
2021/12/10 04:57:01;;;;;;;18.67;12.57;;;4.40;99.90;;;;;;5128258;27;20534;-65
2021/12/10 04:59:30;;;;;;;24.88;13.32;;;4.40;99.90;;;;;;5132326;27;20075;-65
2021/12/10 05:01:57;;;;;;;25.65;11.63;;;4.40;99.90;;;;;;5145087;27;20090;-65
2021/12/10 05:04:25;;;;;;;20.55;13.00;;;4.30;99.90;;;;;;5134068;27;20401;-65
2021/12/10 05:06:51;;;;;;;25.05;12.13;;;4.30;99.90;;;;;;5127952;27;20035;-65
2021/12/10 05:09:18;;;;;;;20.67;12.65;;;4.30;99.90;;;;;;5146498;27;20131;-65
2021/12/10 05:11:44;;;;;;;25.15;12.65;;;4.30;99.90;;;;;;5111409;27;20049;-65
2021/12/10 05:14:10;;;;;;;21.67;11.40;;;4.30;99.90;;;;;;5131943;27;20057;-65
2021/12/10 05:16:41;;;;;;;19.10;11.25;;;4.40;99.90;;;;;;5112997;27;20043;-65
2021/12/10 05:19:09;;;;;;;21.88;11.73;;;4.40;99.90;;;;;;5130154;27;20058;-65
2021/12/10 05:21:36;;;;;;;19.02;11.35;;;4.40;99.90;;;;;;5121492;27;20050;-66
2021/12/10 05:24:03;;;;;;;24.98;11.43;;;4.30;99.90;;;;;;5113094;27;20127;-66
2021/12/10 05:26:28;;;;;;;24.73;11.43;;;4.30;99.90;;;;;;5113402;27;20043;-66
2021/12/10 05:28:54;;;;;;;19.67;12.07;;;4.20;99.90;;;;;;5126947;27;20054;-66
2021/12/10 05:31:20;;;;;;;19.10;10.35;;;4.30;99.90;;;;;;5112505;27;20539;-66
2021/12/10 05:33:46;;;;;;;19.25;10.80;;;4.20;99.90;;;;;;5111638;27;20100;-66
2021/12/10 05:36:11;;;;;;;20.75;11.15;;;4.20;99.90;;;;;;5124073;27;20039;-66
2021/12/10 05:38:37;;;;;;;24.48;13.57;;;4.20;99.90;;;;;;5131168;27;20054;-66
2021/12/10 05:41:06;;;;;;;20.25;11.43;;;4.20;99.90;;;;;;5126342;27;20039;-66
2021/12/10 05:43:33;;;;;;;23.50;10.57;;;4.10;99.90;;;;;;5144957;27;20038;-66
2021/12/10 05:45:59;;;;;;;19.20;10.80;;;4.10;99.90;;;;;;5151592;27;20062;-66
2021/12/10 05:48:25;;;;;;;17.10;11.00;;;4.10;99.90;;;;;;5150413;27;20042;-66
2021/12/10 05:50:51;;;;;;;23.48;11.25;;;4.10;99.90;;;;;;5123851;27;20039;-66
2021/12/10 05:53:17;;;;;;;19.08;10.63;;;4.10;99.90;;;;;;5122625;27;20054;-66
2021/12/10 05:55:43;;;;;;;19.13;10.65;;;4.10;99.90;;;;;;5140546;27;20487;-66
2021/12/10 05:58:09;;;;;;;20.10;12.60;;;4.10;99.90;;;;;;5135690;27;20434;-66
2021/12/10 06:00:48;;;;;;;20.40;10.65;;;4.10;99.90;;;;;;5130889;27;20043;-66
2021/12/10 06:03:16;;;;;;;23.45;11.88;;;4.10;99.90;;;;;;5109819;28;20052;-65
2021/12/10 06:05:43;;;;;;;22.73;11.45;;;4.10;99.90;;;;;;5110256;28;20391;-65
2021/12/10 06:08:10;;;;;;;28.25;13.13;;;4.10;99.90;;;;;;5110831;28;20054;-66
2021/12/10 06:10:37;;;;;;;20.75;11.50;;;4.00;99.90;;;;;;5128664;27;20041;-65
2021/12/10 06:13:03;;;;;;;25.20;11.57;;;4.10;99.90;;;;;;5151189;27;20051;-65
2021/12/10 06:15:29;;;;;;;20.85;13.73;;;4.10;99.90;;;;;;5131151;27;20039;-65
2021/12/10 06:17:55;;;;;;;28.48;14.45;;;4.10;99.90;;;;;;5129419;27;20398;-65
2021/12/10 06:20:28;;;;;;;19.45;13.00;;;4.10;99.90;;;;;;5134766;27;20113;-65
2021/12/10 06:22:55;;;;;;;22.98;14.82;;;4.00;99.90;;;;;;5129836;27;20052;-66
2021/12/10 06:25:21;;;;;;;22.42;13.90;;;4.10;99.90;;;;;;5141122;27;20039;-65
2021/12/10 06:27:46;;;;;;;21.83;14.52;;;4.10;99.90;;;;;;5104985;27;20035;-66
2021/12/10 06:30:19;;;;;;;23.52;15.27;;;4.10;99.90;;;;;;5133654;27;20493;-65
2021/12/10 06:32:46;;;;;;;27.43;15.93;;;4.10;99.90;;;;;;5140159;27;20046;-65
2021/12/10 06:35:13;;;;;;;21.55;13.95;;;4.00;99.90;;;;;;5144321;27;20043;-65
2021/12/10 06:37:40;;;;;;;22.35;15.00;;;4.20;99.90;;;;;;5136890;27;20056;-65
2021/12/10 06:40:09;;;;;;;20.45;14.60;;;4.20;99.90;;;;;;5140891;27;20375;-65
2021/12/10 06:42:34;;;;;;;21.90;15.10;;;4.30;99.90;;;;;;5113832;27;20047;-65
2021/12/10 06:45:04;;;;;;;21.13;14.27;;;4.30;99.90;;;;;;5131831;27;20055;-65
2021/12/10 06:47:30;;;;;;;23.27;14.75;;;4.20;99.90;;;;;;5130648;27;20047;-65
2021/12/10 06:49:55;;;;;;;18.52;13.65;;;4.30;99.90;;;;;;5145628;27;20053;-66
2021/12/10 06:52:21;;;;;;;22.77;15.48;;;4.30;99.90;;;;;;5132250;27;20126;-65
2021/12/10 06:54:46;;;;;;;20.08;13.82;;;4.40;99.90;;;;;;5150356;27;20133;-65
2021/12/10 06:57:12;;;;;;;22.67;13.20;;;4.40;99.90;;;;;;5135068;27;20035;-65
2021/12/10 06:59:37;;;;;;;20.73;13.85;;;4.40;99.90;;;;;;5129928;27;20099;-65
2021/12/10 07:02:03;;;;;;;23.45;15.15;;;4.50;99.90;;;;;;5135221;27;20050;-65
2021/12/10 07:04:29;;;;;;;21.48;14.43;;;4.40;99.90;;;;;;5150713;27;20137;-65
2021/12/10 07:06:55;;;;;;;20.48;12.98;;;4.50;99.90;;;;;;5115732;27;20548;-65
2021/12/10 07:09:23;;;;;;;22.90;12.43;;;4.50;99.90;;;;;;5129296;27;20472;-66
2021/12/10 07:11:51;;;;;;;21.88;12.80;;;4.50;99.90;;;;;;5129711;27;20450;-66
2021/12/10 07:14:17;;;;;;;20.15;12.27;;;4.50;99.90;;;;;;5106663;28;20577;-66
2021/12/10 07:16:44;;;;;;;21.67;13.57;;;4.40;99.90;;;;;;5136253;27;20046;-66
2021/12/10 07:19:09;;;;;;;22.13;12.68;;;4.40;99.90;;;;;;5114765;27;20111;-66
2021/12/10 07:21:36;;;;;;;20.75;13.38;;;4.30;99.90;;;;;;5132506;27;20035;-66
2021/12/10 07:24:05;;;;;;;19.02;12.15;;;4.30;99.90;;;;;;5133957;27;20039;-66
2021/12/10 07:26:32;;;;;;;19.77;13.50;;;4.30;99.90;;;;;;5134236;27;20031;-66
2021/12/10 07:28:58;;;;;;;21.88;13.02;;;4.30;99.90;;;;;;5148222;27;20059;-66
2021/12/10 07:31:24;;;;;;;20.25;13.48;;;4.30;99.90;;;;;;5119699;27;20047;-66
2021/12/10 07:33:50;;;;;;;19.85;13.68;;;4.30;99.90;;;;;;5132403;27;20057;-65
2021/12/10 07:36:15;;;;;;;17.98;12.88;;;4.30;99.90;;;;;;5132499;27;20447;-66
2021/12/10 07:38:42;;;;;;;22.23;13.23;;;4.30;99.90;;;;;;5154024;27;20050;-66
2021/12/10 07:41:08;;;;;;;22.88;14.70;;;4.20;99.90;;;;;;5117928;27;20486;-66
2021/12/10 07:43:35;;;;;;;19.77;13.93;;;4.20;99.90;;;;;;5115058;27;20051;-66
2021/12/10 07:46:01;;;;;;;21.73;13.30;;;4.30;99.90;;;;;;5150926;27;20537;-66
2021/12/10 07:48:28;;;;;;;22.90;12.80;;;4.20;99.90;;;;;;5140731;27;20126;-66
2021/12/10 07:51:00;;;;;;;22.42;12.57;;;4.20;99.90;;;;;;5122248;27;20088;-66
2021/12/10 07:53:28;;;;;;;17.85;12.18;;;4.10;99.90;;;;;;5125575;27;20042;-65
2021/12/10 07:55:56;;;;;;;24.35;13.02;;;4.30;99.90;;;;;;5133074;27;20394;-65
2021/12/10 07:58:22;;;;;;;20.30;13.13;;;4.30;99.90;;;;;;5124724;27;20044;-66
2021/12/10 08:00:48;;;;;;;16.38;12.57;;;4.30;99.90;;;;;;5112461;27;20031;-66
2021/12/10 08:03:14;;;;;;;18.73;12.98;;;4.30;99.90;;;;;;5126941;27;20927;-66
2021/12/10 08:05:41;;;;;;;24.77;13.77;;;4.30;99.90;;;;;;5103412;27;20040;-65
2021/12/10 08:08:08;;;;;;;20.15;12.98;;;4.20;99.90;;;;;;5102023;27;20276;-65
2021/12/10 08:10:35;;;;;;;17.98;12.38;;;4.20;99.90;;;;;;5111779;27;20070;-66
2021/12/10 08:13:01;;;;;;;20.52;12.20;;;4.20;99.90;;;;;;5123024;27;20047;-66
2021/12/10 08:15:27;;;;;;;18.95;11.00;;;4.20;99.90;;;;;;5118635;27;20406;-66
2021/12/10 08:17:53;;;;;;;17.27;12.07;;;4.20;99.90;;;;;;5133105;27;20089;-65
2021/12/10 08:20:22;;;;;;;24.15;10.98;;;4.30;99.90;;;;;;5114506;27;20088;-66
2021/12/10 08:22:49;;;;;;;18.77;12.13;;;4.30;99.90;;;;;;5132076;27;20054;-67
2021/12/10 08:25:19;;;;;;;16.48;10.20;;;4.20;99.90;;;;;;5117997;27;20054;-66
2021/12/10 08:27:45;;;;;;;16.50;11.18;;;4.20;99.90;;;;;;5131477;27;20128;-68
2021/12/10 08:30:14;;;;;;;22.08;12.95;;;4.20;99.90;;;;;;5113994;27;20051;-65
2021/12/10 08:32:40;;;;;;;17.35;10.88;;;4.20;99.90;;;;;;5131629;27;20478;-65
2021/12/10 08:35:10;;;;;;;15.05;9.77;;;4.20;99.90;;;;;;5124805;27;20077;-66
2021/12/10 08:37:37;;;;;;;13.35;10.13;;;4.10;99.90;;;;;;5110108;28;20039;-65
2021/12/10 08:40:06;;;;;;;15.98;9.05;;;4.20;99.90;;;;;;5129928;27;20533;-65
2021/12/10 08:42:31;;;;;;;16.00;10.57;;;4.10;99.90;;;;;;5134831;27;20046;-65
2021/12/10 08:44:57;;;;;;;17.70;10.20;;;4.20;99.90;;;;;;5118685;27;20722;-66
2021/12/10 08:47:23;;;;;;;20.02;9.90;;;4.20;99.90;;;;;;5145003;27;20039;-66
2021/12/10 08:49:48;;;;;;;23.10;10.52;;;4.10;99.90;;;;;;5139386;27;20035;-66
2021/12/10 08:52:15;;;;;;;16.80;9.80;;;4.20;99.90;;;;;;5149942;27;20034;-65
2021/12/10 08:54:41;;;;;;;14.93;9.25;;;4.30;99.90;;;;;;5140137;27;20042;-66
2021/12/10 08:57:08;;;;;;;13.80;8.30;;;4.30;99.90;;;;;;5136219;27;20043;-66
2021/12/10 08:59:36;;;;;;;14.70;9.68;;;4.40;99.90;;;;;;5121531;27;20453;-66
2021/12/10 09:02:04;;;;;;;16.45;9.65;;;4.40;99.90;;;;;;5111118;27;20047;-66
2021/12/10 09:04:31;;;;;;;17.00;9.57;;;4.30;99.90;;;;;;5112790;27;20499;-66
2021/12/10 09:07:02;;;;;;;14.88;9.07;;;4.30;99.90;;;;;;5131793;27;20572;-66
2021/12/10 09:09:30;;;;;;;26.83;9.82;;;4.40;99.90;;;;;;5131555;27;20383;-66
2021/12/10 09:11:58;;;;;;;15.25;8.20;;;4.40;99.90;;;;;;5131191;27;20082;-66
2021/12/10 09:14:31;;;;;;;13.23;8.57;;;4.30;99.90;;;;;;5139795;27;20406;-66
2021/12/10 09:17:00;;;;;;;;;;;4.40;99.90;;;;;;5113003;27;20115;-66
2021/12/10 09:19:27;;;;;;;11.82;7.80;;;4.30;99.90;;;;;;5127584;27;20302;-66
2021/12/10 09:21:53;;;;;;;16.45;8.50;;;4.30;99.90;;;;;;5126164;27;20053;-66
2021/12/10 09:24:21;;;;;;;16.20;8.77;;;4.30;99.90;;;;;;5124264;27;20050;-66
2021/12/10 09:26:49;;;;;;;16.67;8.10;;;4.30;99.90;;;;;;5139444;27;20047;-66
2021/12/10 09:29:16;;;;;;;15.82;7.57;;;4.40;99.90;;;;;;5149527;27;20051;-66
2021/12/10 09:31:43;;;;;;;13.60;8.80;;;4.40;99.90;;;;;;5124619;27;20035;-66
2021/12/10 09:34:13;;;;;;;10.10;6.80;;;4.40;99.90;;;;;;5131014;27;20055;-65
2021/12/10 09:36:41;;;;;;;17.17;8.63;;;4.50;99.90;;;;;;5111131;27;20080;-66
2021/12/10 09:39:08;;;;;;;11.50;6.88;;;4.40;99.90;;;;;;5130867;27;20051;-66
2021/12/10 09:41:35;;;;;;;14.95;7.97;;;4.30;99.90;;;;;;5136062;27;20047;-66
2021/12/10 09:44:00;;;;;;;13.70;7.50;;;4.30;99.90;;;;;;5129479;27;20047;-66
2021/12/10 09:46:27;;;;;;;10.98;7.50;;;4.30;99.90;;;;;;5111649;27;20047;-66
2021/12/10 09:48:53;;;;;;;12.60;7.95;;;4.40;99.90;;;;;;5112168;27;20047;-66
2021/12/10 09:51:29;;;;;;;14.20;7.97;;;4.40;99.90;;;;;;5142783;27;20050;-65
2021/12/10 09:53:58;;;;;;;15.25;7.53;;;4.40;99.90;;;;;;5110814;27;20039;-66
2021/12/10 09:56:25;;;;;;;10.38;6.55;;;4.40;99.90;;;;;;5129951;27;20082;-66
2021/12/10 09:58:53;;;;;;;14.57;8.57;;;4.40;99.90;;;;;;5129025;27;20059;-66
2021/12/10 10:01:42;;;;;;;14.82;8.93;;;4.50;99.90;;;;;;5111741;27;20085;-66
2021/12/10 10:04:10;;;;;;;12.23;6.97;;;4.50;99.90;;;;;;5128764;27;20036;-66
2021/12/10 10:06:46;;;;;;;10.48;6.10;;;4.60;99.90;;;;;;5111418;27;20049;-65
2021/12/10 10:09:14;;;;;;;17.45;6.45;;;4.60;99.90;;;;;;5100899;27;20072;-65
2021/12/10 10:11:41;;;;;;;11.65;5.80;;;4.70;99.90;;;;;;5110305;27;20079;-65
2021/12/10 10:14:07;;;;;;;13.93;7.05;;;4.70;99.90;;;;;;5111622;27;20039;-65
2021/12/10 10:16:35;;;;;;;12.02;7.15;;;4.70;99.90;;;;;;5130143;27;20395;-66
2021/12/10 10:19:02;;;;;;;8.73;5.90;;;4.80;99.90;;;;;;5146718;27;20098;-66
2021/12/10 10:21:32;;;;;;;12.80;7.00;;;4.90;99.90;;;;;;5139433;27;20035;-66
2021/12/10 10:23:59;;;;;;;20.23;6.38;;;4.90;99.90;;;;;;5121718;27;20047;-66
2021/12/10 10:26:32;;;;;;;6.90;5.07;;;4.90;99.90;;;;;;5129390;27;20038;-66
2021/12/10 10:29:05;;;;;;;8.93;6.03;;;5.00;99.90;;;;;;5128978;27;20055;-66
2021/12/10 10:31:31;;;;;;;16.33;5.82;;;4.90;99.90;;;;;;5130529;27;20043;-66
2021/12/10 10:33:59;;;;;;;9.05;5.38;;;5.00;99.90;;;;;;5128983;27;20039;-66
2021/12/10 10:36:27;;;;;;;11.77;5.85;;;5.10;99.90;;;;;;5133265;27;20394;-66
2021/12/10 10:38:58;;;;;;;11.88;5.55;;;5.10;99.90;;;;;;5128602;27;20034;-65
2021/12/10 10:41:28;;;;;;;9.68;6.32;;;5.00;99.90;;;;;;5116571;27;20406;-66
2021/12/10 10:43:55;;;;;;;14.35;7.07;;;5.10;99.90;;;;;;5131841;27;20044;-66
2021/12/10 10:46:20;;;;;;;11.25;5.32;;;5.20;99.90;;;;;;5144826;27;20080;-65
2021/12/10 10:48:48;;;;;;;14.38;5.80;;;5.20;99.90;;;;;;5111055;27;20039;-66
2021/12/10 10:51:18;;;;;;;10.23;5.65;;;5.20;99.90;;;;;;5125710;27;20538;-66
2021/12/10 10:53:48;;;;;;;9.88;5.95;;;5.30;99.90;;;;;;5126095;27;20035;-65
2021/12/10 10:56:26;;;;;;;14.48;5.78;;;5.40;99.90;;;;;;5105660;27;20059;-65
2021/12/10 10:58:56;;;;;;;10.63;5.55;;;5.40;99.90;;;;;;5109060;27;20513;-65
2021/12/10 11:01:28;;;;;;;7.72;5.03;;;5.40;99.90;;;;;;5131350;27;20103;-65
2021/12/10 11:04:03;;;;;;;8.73;4.47;;;5.40;99.90;;;;;;5119630;27;20454;-65
2021/12/10 11:06:36;;;;;;;9.55;4.93;;;5.50;99.90;;;;;;5131970;27;20039;-66
2021/12/10 11:09:11;;;;;;;;;;;5.50;99.90;;;;;;5131986;27;20505;-66
2021/12/10 11:11:43;;;;;;;9.20;5.40;;;5.50;99.90;;;;;;5136965;27;19984;-66
2021/12/10 11:14:13;;;;;;;12.63;5.90;;;5.50;99.90;;;;;;5110084;28;20043;-66
2021/12/10 11:16:42;;;;;;;9.13;4.95;;;5.60;99.90;;;;;;5125724;27;20038;-66
2021/12/10 11:19:41;;;;;;;10.85;5.68;;;5.70;99.90;;;;;;5108586;28;20478;-66
2021/12/10 11:22:13;;;;;;;12.93;5.70;;;5.80;99.90;;;;;;5118750;27;20756;-66
2021/12/10 11:24:46;;;;;;;9.23;4.40;;;5.80;99.90;;;;;;5135421;27;20473;-66
2021/12/10 11:27:25;;;;;;;9.10;5.32;;;5.80;99.90;;;;;;5113958;28;20047;-66
2021/12/10 11:29:52;;;;;;;8.70;4.68;;;5.80;99.90;;;;;;5118182;28;20108;-66
2021/12/10 11:32:34;;;;;;;11.50;4.53;;;5.90;99.90;;;;;;5137674;27;20085;-66
2021/12/10 11:35:12;;;;;;;11.35;4.88;;;5.90;99.90;;;;;;5131649;27;20049;-66
2021/12/10 11:37:46;;;;;;;8.77;4.65;;;6.00;99.90;;;;;;5129942;27;20043;-66
2021/12/10 11:40:40;;;;;;;32.45;6.43;;;6.10;99.90;;;;;;5112092;27;20051;-66
2021/12/10 11:43:31;;;;;;;;;;;6.20;99.90;;;;;;5140308;27;20051;-66
2021/12/10 11:48:43;;;;;;;8.95;4.57;;;6.30;99.90;;;;;;5120236;28;20043;-66
2021/12/10 11:51:16;;;;;;;7.95;5.10;;;6.30;99.90;;;;;;5128914;28;20050;-66
2021/12/10 11:53:45;;;;;;;;;;;6.40;99.90;;;;;;5124495;28;20040;-66
2021/12/10 11:56:14;;;;;;;8.90;5.03;;;6.40;99.90;;;;;;5124314;27;19927;-66
2021/12/10 11:58:41;;;;;;;9.73;4.53;;;6.40;99.90;;;;;;5125681;27;20043;-66
2021/12/10 12:01:16;;;;;;;12.80;4.82;;;6.50;99.90;;;;;;5115939;27;20062;-66
2021/12/10 12:03:41;;;;;;;9.40;3.95;;;6.60;99.90;;;;;;5149732;27;20089;-66
2021/12/10 12:06:07;;;;;;;10.80;4.22;;;6.60;99.90;;;;;;5123970;27;20510;-66
2021/12/10 12:08:38;;;;;;;12.75;4.82;;;6.70;99.90;;;;;;5125658;27;20031;-66
2021/12/10 12:11:06;;;;;;;8.57;3.67;;;6.80;99.90;;;;;;5113933;27;20577;-66
2021/12/10 12:13:39;;;;;;;9.20;3.97;;;6.90;99.90;;;;;;5117967;27;20485;-66
2021/12/10 12:16:16;;;;;;;13.43;4.78;;;7.00;99.90;;;;;;5112840;27;20668;-66
2021/12/10 12:18:47;;;;;;;12.70;3.80;;;7.00;99.90;;;;;;5111802;27;20043;-66
2021/12/10 12:27:08;;;;;;;9.65;3.33;;;7.10;99.90;;;;;;5133033;27;20048;-66
2021/12/10 12:29:36;;;;;;;8.60;3.58;;;7.10;99.90;;;;;;5127271;27;20086;-67
2021/12/10 12:32:12;;;;;;;9.20;3.65;;;7.10;99.90;;;;;;5138188;27;20066;-67
2021/12/10 12:34:37;;;;;;;7.50;3.63;;;7.20;99.90;;;;;;5112487;27;20506;-66
2021/12/10 12:37:09;;;;;;;13.23;5.30;;;7.20;99.90;;;;;;5114041;27;20066;-67
2021/12/10 12:39:45;;;;;;;9.30;4.18;;;7.20;99.90;;;;;;5131675;27;20038;-67
2021/12/10 12:42:17;;;;;;;11.63;5.03;;;7.20;99.90;;;;;;5114111;27;20051;-66
2021/12/10 12:44:43;;;;;;;12.45;4.30;;;7.30;99.90;;;;;;5124328;27;20047;-66
2021/12/10 12:47:12;;;;;;;5.43;3.40;;;7.30;99.90;;;;;;5130597;27;20047;-67
2021/12/10 12:49:38;;;;;;;7.88;4.13;;;7.40;99.90;;;;;;5146742;27;20043;-66
2021/12/10 12:52:10;;;;;;;8.82;4.22;;;7.30;99.90;;;;;;5126556;27;20047;-67
2021/12/10 12:54:39;;;;;;;6.20;3.75;;;7.30;99.90;;;;;;5127395;27;20487;-67
2021/12/10 12:57:07;;;;;;;8.68;3.75;;;7.20;99.90;;;;;;5115923;27;20035;-67
2021/12/10 12:59:34;;;;;;;11.13;4.05;;;7.20;99.90;;;;;;5107447;27;20130;-67
2021/12/10 13:02:05;;;;;;;9.23;3.95;;;7.20;99.90;;;;;;5141270;27;20035;-68
2021/12/10 13:04:36;;;;;;;10.98;3.70;;;7.20;99.90;;;;;;5132390;27;20072;-67